Time;durP1;ratioP1;P1;durP2;ratioP2;P2;SDS_P1;SDS_P2;PMS_P1;PMS_P2;Temp;Humidity;BMP_temperature;BMP_pressure;BME280_temperature;BME280_humidity;BME280_pressure;Samples;Min_cycle;Max_cycle;Signal;HPM_P1;HPM_P2
2024/04/12 00:01:14;;;;;;;26.13;18.80;;;16.10;94.80;;;;;;5352459;26;20300;-84
2024/04/12 00:03:49;;;;;;;27.53;18.63;;;16.10;94.80;;;;;;5377824;26;20253;-81
2024/04/12 00:06:17;;;;;;;24.13;19.17;;;16.10;94.80;;;;;;5343838;26;20251;-81
2024/04/12 00:08:49;;;;;;;22.10;17.73;;;16.00;94.70;;;;;;5351998;26;20779;-81
2024/04/12 00:11:23;;;;;;;24.07;18.87;;;16.00;94.80;;;;;;5344183;26;20261;-82
2024/04/12 00:14:14;;;;;;;26.93;19.83;;;16.00;94.90;;;;;;5344496;26;20295;-81
2024/04/12 00:16:43;;;;;;;24.00;18.70;;;15.90;94.90;;;;;;5363211;26;20291;-80
2024/04/12 00:19:22;;;;;;;30.73;19.77;;;15.90;94.90;;;;;;5352287;26;20569;-83
2024/04/12 00:21:55;;;;;;;25.90;20.17;;;15.90;94.90;;;;;;5346325;26;20290;-82
2024/04/12 00:24:39;;;;;;;31.67;20.73;;;15.90;94.90;;;;;;5376756;26;20257;-81
2024/04/12 00:27:08;;;;;;;25.50;20.60;;;15.80;95.00;;;;;;5412522;26;20322;-81
2024/04/12 00:29:39;;;;;;;24.27;19.33;;;15.80;95.00;;;;;;5382257;26;20254;-81
2024/04/12 00:32:16;;;;;;;27.50;21.70;;;15.70;95.10;;;;;;5382872;26;20250;-81
2024/04/12 00:34:58;;;;;;;23.83;20.10;;;15.70;95.10;;;;;;5379168;26;20694;-83
2024/04/12 00:37:42;;;;;;;28.07;20.53;;;15.70;95.20;;;;;;5383349;26;20770;-82
2024/04/12 00:40:21;;;;;;;24.97;19.97;;;15.60;95.30;;;;;;5380872;26;20254;-81
2024/04/12 00:43:36;;;;;;;27.90;20.07;;;15.60;95.30;;;;;;5346200;26;20263;-82
2024/04/12 00:46:23;;;;;;;25.33;19.07;;;15.60;95.30;;;;;;5343723;26;20249;-83
2024/04/12 00:48:53;;;;;;;28.57;20.50;;;15.60;95.30;;;;;;5375137;26;20665;-82
2024/04/12 00:51:27;;;;;;;29.83;20.50;;;15.60;95.40;;;;;;5352749;26;20252;-82
2024/04/12 00:54:06;;;;;;;32.70;20.67;;;15.60;95.50;;;;;;5355205;26;20264;-82
2024/04/12 00:56:52;;;;;;;29.07;20.60;;;15.60;95.50;;;;;;5345590;26;20604;-82
2024/04/12 00:59:46;;;;;;;25.87;19.13;;;15.60;95.60;;;;;;5353042;26;20252;-81
2024/04/12 01:02:26;;;;;;;29.50;20.77;;;15.60;95.50;;;;;;5339599;26;20323;-82
2024/04/12 01:05:35;;;;;;;32.10;21.47;;;15.60;95.50;;;;;;5378866;26;20249;-81
2024/04/12 01:08:29;;;;;;;24.53;18.93;;;15.60;95.50;;;;;;5357694;26;20790;-82
2024/04/12 01:11:27;;;;;;;29.80;19.60;;;15.50;95.50;;;;;;5354451;26;20252;-82
2024/04/12 01:13:56;;;;;;;25.63;20.47;;;15.50;95.50;;;;;;5356499;26;20292;-82
2024/04/12 01:16:39;;;;;;;30.13;20.50;;;15.40;95.50;;;;;;5381458;26;20263;-82
2024/04/12 01:19:19;;;;;;;24.43;20.23;;;15.40;95.50;;;;;;5339988;26;20252;-81
2024/04/12 01:21:56;;;;;;;29.97;21.13;;;15.40;95.50;;;;;;5386104;26;20248;-81
2024/04/12 01:24:33;;;;;;;27.60;21.50;;;15.30;95.60;;;;;;5344467;26;20249;-82
2024/04/12 01:27:18;;;;;;;27.50;21.40;;;15.30;95.60;;;;;;5356127;26;20722;-82
2024/04/12 01:29:56;;;;;;;28.00;22.17;;;15.30;95.70;;;;;;5381340;26;20290;-81
2024/04/12 01:32:33;;;;;;;29.83;22.07;;;15.30;95.70;;;;;;5342486;26;20261;-80
2024/04/12 01:35:03;;;;;;;30.93;21.23;;;15.30;95.70;;;;;;5378219;26;20255;-80
2024/04/12 01:37:31;;;;;;;27.73;20.47;;;15.30;95.60;;;;;;5382059;26;20258;-82
2024/04/12 01:40:03;;;;;;;27.60;20.90;;;15.20;95.60;;;;;;5383406;26;20296;-81
2024/04/12 01:42:30;;;;;;;29.33;20.33;;;15.20;95.60;;;;;;5381639;26;20319;-81
2024/04/12 01:45:18;;;;;;;28.40;20.40;;;15.20;95.70;;;;;;5384244;26;20343;-82
2024/04/12 01:47:48;;;;;;;32.87;19.33;;;15.10;95.80;;;;;;5367501;26;20257;-82
2024/04/12 01:50:22;;;;;;;30.23;19.47;;;15.10;95.80;;;;;;5385732;26;20346;-81
2024/04/12 01:53:54;;;;;;;27.87;21.07;;;15.10;95.90;;;;;;5383775;26;20287;-82
2024/04/12 01:56:25;;;;;;;25.93;19.20;;;15.10;95.90;;;;;;5351198;26;20304;-81
2024/04/12 01:58:56;;;;;;;28.20;19.47;;;15.10;95.90;;;;;;5378433;26;20255;-81
2024/04/12 02:01:26;;;;;;;24.13;19.10;;;15.10;95.90;;;;;;5374637;26;20889;-81
2024/04/12 02:03:54;;;;;;;24.60;19.33;;;15.00;95.90;;;;;;5378123;26;20301;-82
2024/04/12 02:06:42;;;;;;;23.00;18.97;;;15.00;95.90;;;;;;5386222;26;20654;-82
2024/04/12 02:09:23;;;;;;;27.27;18.67;;;15.00;95.90;;;;;;5356172;26;20251;-81
2024/04/12 02:12:03;;;;;;;33.27;19.57;;;15.00;95.90;;;;;;5371228;26;20244;-82
2024/04/12 02:14:30;;;;;;;26.53;18.83;;;14.90;95.90;;;;;;5387931;26;20252;-80
2024/04/12 02:16:58;;;;;;;23.00;18.30;;;14.90;95.90;;;;;;5355554;26;20264;-81
2024/04/12 02:19:40;;;;;;;24.37;17.93;;;14.90;95.90;;;;;;5408563;26;20708;-80
2024/04/12 02:22:19;;;;;;;29.63;18.83;;;14.90;96.00;;;;;;5384356;26;20320;-81
2024/04/12 02:25:05;;;;;;;24.47;18.90;;;14.90;96.00;;;;;;5357840;26;20298;-82
2024/04/12 02:27:40;;;;;;;30.30;18.73;;;14.80;96.00;;;;;;5383786;26;20259;-81
2024/04/12 02:30:13;;;;;;;27.50;17.23;;;14.80;96.00;;;;;;5359398;26;20259;-81
2024/04/12 02:32:48;;;;;;;27.50;17.90;;;14.80;96.00;;;;;;5347487;26;20310;-81
2024/04/12 02:35:21;;;;;;;23.47;17.17;;;14.80;96.10;;;;;;5343167;26;20554;-80
2024/04/12 02:38:39;;;;;;;22.17;16.53;;;14.70;96.10;;;;;;5380260;26;20295;-81
2024/04/12 02:41:13;;;;;;;21.90;16.27;;;14.70;96.30;;;;;;5384245;26;20252;-81
2024/04/12 02:43:52;;;;;;;21.73;16.27;;;14.70;96.30;;;;;;5380853;26;20291;-81
2024/04/12 02:46:47;;;;;;;17.83;14.53;;;14.70;96.40;;;;;;5407258;26;20247;-80
2024/04/12 02:49:52;;;;;;;21.87;16.73;;;14.70;96.40;;;;;;5354865;26;20244;-81
2024/04/12 02:52:19;;;;;;;18.87;15.27;;;14.70;96.50;;;;;;5370141;26;20287;-82
2024/04/12 02:54:52;;;;;;;22.17;15.00;;;14.70;96.40;;;;;;5355651;26;20257;-81
2024/04/12 02:57:19;;;;;;;17.37;14.63;;;14.60;96.50;;;;;;5370232;26;20291;-81
2024/04/12 02:59:52;;;;;;;16.97;13.20;;;14.60;96.40;;;;;;5382086;26;20712;-82
2024/04/12 03:02:20;;;;;;;23.40;15.57;;;14.60;96.30;;;;;;5356256;26;20244;-80
2024/04/12 03:08:54;;;;;;;19.87;14.07;;;14.50;96.50;;;;;;5300675;26;20785;-81
2024/04/12 03:11:25;;;;;;;18.53;13.47;;;14.40;96.60;;;;;;5396052;26;20253;-82
2024/04/12 03:14:09;;;;;;;18.33;14.20;;;14.40;96.60;;;;;;5383476;26;20282;-81
2024/04/12 03:16:51;;;;;;;18.80;14.77;;;14.30;96.70;;;;;;5364212;26;20248;-81
2024/04/12 03:19:26;;;;;;;22.07;14.43;;;14.20;96.80;;;;;;5386047;26;20309;-82
2024/04/12 03:21:53;;;;;;;21.03;14.90;;;14.20;97.00;;;;;;5351785;26;20255;-80
2024/04/12 03:24:32;;;;;;;18.20;13.90;;;14.20;97.10;;;;;;5342054;26;20264;-81
2024/04/12 03:27:10;;;;;;;20.87;13.67;;;14.20;97.30;;;;;;5408013;26;20297;-82
2024/04/12 03:29:42;;;;;;;17.10;14.03;;;14.20;97.30;;;;;;5380446;26;20251;-81
2024/04/12 03:32:19;;;;;;;18.00;13.80;;;14.20;97.30;;;;;;5353389;26;20319;-81
2024/04/12 03:34:56;;;;;;;18.33;13.37;;;14.20;97.30;;;;;;5369696;26;20316;-82
2024/04/12 03:37:47;;;;;;;18.80;14.67;;;14.20;97.30;;;;;;5367900;26;20251;-81
2024/04/12 03:40:23;;;;;;;14.77;13.17;;;14.20;97.20;;;;;;5360067;26;20263;-82
2024/04/12 03:43:02;;;;;;;21.03;14.10;;;14.20;97.20;;;;;;5352837;26;21074;-82
2024/04/12 03:45:42;;;;;;;16.13;13.80;;;14.20;97.20;;;;;;5374515;26;20309;-82
2024/04/12 03:48:19;;;;;;;18.10;13.17;;;14.20;97.20;;;;;;5348948;26;20247;-81
2024/04/12 03:51:05;;;;;;;18.27;14.07;;;14.20;97.20;;;;;;5376035;26;20284;-81
2024/04/12 03:53:33;;;;;;;18.00;13.17;;;14.10;97.30;;;;;;5384845;26;20244;-81
2024/04/12 03:56:08;;;;;;;23.37;14.00;;;14.10;97.30;;;;;;5350963;26;20244;-81
2024/04/12 03:58:37;;;;;;;16.13;13.10;;;14.10;97.30;;;;;;5384177;26;20255;-81
2024/04/12 04:01:19;;;;;;;16.67;12.37;;;14.10;97.40;;;;;;5372590;26;20300;-81
2024/04/12 04:04:10;;;;;;;17.67;12.13;;;14.10;97.40;;;;;;5355221;26;20777;-82
2024/04/12 04:07:05;;;;;;;13.77;12.07;;;14.10;97.50;;;;;;5368056;26;20355;-83
2024/04/12 04:09:45;;;;;;;16.70;12.23;;;14.10;97.50;;;;;;5377832;26;20726;-81
2024/04/12 04:12:32;;;;;;;13.53;11.50;;;14.10;97.50;;;;;;5349069;26;20248;-81
2024/04/12 04:15:06;;;;;;;15.87;12.13;;;14.10;97.40;;;;;;5372550;26;20354;-81
2024/04/12 04:17:47;;;;;;;16.10;11.73;;;14.10;97.30;;;;;;5368705;26;20570;-81
2024/04/12 04:20:27;;;;;;;18.40;11.70;;;14.10;97.30;;;;;;5377674;26;20260;-81
2024/04/12 04:23:02;;;;;;;19.03;11.10;;;14.10;97.30;;;;;;5364086;26;20291;-81
2024/04/12 04:25:38;;;;;;;14.10;10.60;;;14.10;97.30;;;;;;5347292;26;20780;-80
2024/04/12 04:28:10;;;;;;;14.03;10.77;;;14.00;97.30;;;;;;5377279;26;20252;-81
2024/04/12 04:30:44;;;;;;;16.63;11.87;;;14.00;97.30;;;;;;5353236;26;20294;-81
2024/04/12 04:33:17;;;;;;;13.67;11.47;;;14.00;97.40;;;;;;5378569;26;20257;-81
2024/04/12 04:35:50;;;;;;;17.97;11.57;;;14.00;97.40;;;;;;5375656;26;20715;-82
2024/04/12 04:38:39;;;;;;;18.27;11.40;;;13.90;97.40;;;;;;5341540;26;20697;-80
2024/04/12 04:41:19;;;;;;;15.13;11.90;;;13.90;97.40;;;;;;5384916;26;20739;-81
2024/04/12 04:43:59;;;;;;;15.40;11.20;;;13.90;97.70;;;;;;5383323;26;20306;-84
2024/04/12 04:46:58;;;;;;;14.40;10.87;;;14.00;97.40;;;;;;5337247;26;20324;-81
2024/04/12 04:49:57;;;;;;;15.40;11.07;;;14.00;97.40;;;;;;5354145;26;20597;-81
2024/04/12 04:52:51;;;;;;;18.30;11.03;;;14.00;97.40;;;;;;5358168;26;20252;-81
2024/04/12 04:55:28;;;;;;;16.93;11.27;;;14.00;97.20;;;;;;5349241;26;20259;-80
2024/04/12 04:58:04;;;;;;;13.20;11.30;;;14.10;97.10;;;;;;5353056;26;20622;-81
2024/04/12 05:00:55;;;;;;;11.77;10.33;;;14.10;97.10;;;;;;5355458;26;20797;-82
2024/04/12 05:03:26;;;;;;;14.43;10.77;;;14.10;97.10;;;;;;5377936;26;20255;-82
2024/04/12 05:05:56;;;;;;;15.13;12.40;;;14.10;97.10;;;;;;5364465;26;20249;-84
2024/04/12 05:08:47;;;;;;;16.53;11.70;;;14.10;97.10;;;;;;5349201;26;20312;-81
2024/04/12 05:11:19;;;;;;;14.37;10.47;;;14.20;97.20;;;;;;5354151;26;20250;-81
2024/04/12 05:13:50;;;;;;;14.93;11.67;;;14.20;97.40;;;;;;5355239;26;20249;-82
2024/04/12 05:16:44;;;;;;;13.07;11.57;;;14.20;97.10;;;;;;5359111;26;20251;-81
2024/04/12 05:19:25;;;;;;;14.07;11.20;;;14.30;97.10;;;;;;5349848;26;20256;-81
2024/04/12 05:22:23;;;;;;;15.17;10.97;;;14.30;97.10;;;;;;5375023;26;20348;-81
2024/04/12 05:24:53;;;;;;;13.30;10.87;;;14.40;97.10;;;;;;5382391;26;20759;-81
2024/04/12 05:27:21;;;;;;;18.63;11.27;;;14.40;97.10;;;;;;5380415;26;20613;-81
2024/04/12 05:29:49;;;;;;;15.20;11.63;;;14.50;97.10;;;;;;5376850;26;20302;-82
2024/04/12 05:32:20;;;;;;;12.07;10.83;;;14.50;97.00;;;;;;5383646;26;20242;-82
2024/04/12 05:34:47;;;;;;;16.30;11.47;;;14.50;97.00;;;;;;5369887;26;20243;-81
2024/04/12 05:37:15;;;;;;;14.90;11.13;;;14.50;96.90;;;;;;5387471;26;20244;-80
2024/04/12 05:39:48;;;;;;;13.10;10.77;;;14.60;96.90;;;;;;5373939;26;20615;-81
2024/04/12 05:42:51;;;;;;;17.67;11.07;;;14.60;96.80;;;;;;5359325;26;20251;-81
2024/04/12 05:45:22;;;;;;;13.67;10.23;;;14.60;96.70;;;;;;5352151;26;20313;-81
2024/04/12 05:48:15;;;;;;;21.37;10.97;;;14.70;96.70;;;;;;5330731;26;20261;-82
2024/04/12 05:51:06;;;;;;;20.13;10.37;;;14.80;96.60;;;;;;5376988;26;20261;-85
2024/04/12 05:53:51;;;;;;;14.07;10.57;;;14.80;96.50;;;;;;5359546;26;20739;-82
2024/04/12 05:56:39;;;;;;;19.23;9.63;;;14.90;96.60;;;;;;5340926;26;20250;-85
2024/04/12 05:59:25;;;;;;;13.33;9.13;;;14.90;96.50;;;;;;5381068;26;20253;-82
2024/04/12 06:02:36;;;;;;;10.83;8.87;;;15.10;96.50;;;;;;5370632;26;20315;-82
2024/04/12 06:05:39;;;;;;;14.37;9.77;;;15.20;96.30;;;;;;5379890;26;20527;-82
2024/04/12 06:08:30;;;;;;;12.87;9.10;;;15.30;96.20;;;;;;5372608;26;20265;-82
2024/04/12 06:11:25;;;;;;;11.43;7.97;;;15.50;96.10;;;;;;5337634;26;20253;-79
2024/04/12 06:14:38;;;;;;;14.93;9.03;;;15.60;95.90;;;;;;5373330;26;20297;-82
2024/04/12 06:17:10;;;;;;;14.30;8.10;;;15.80;95.70;;;;;;5356038;26;20735;-81
2024/04/12 06:19:39;;;;;;;13.93;8.40;;;16.00;95.60;;;;;;5350585;26;20252;-81
2024/04/12 06:22:13;;;;;;;15.73;8.67;;;16.10;95.40;;;;;;5381361;26;20334;-82
2024/04/12 06:24:42;;;;;;;11.07;8.13;;;16.20;95.00;;;;;;5379810;26;20247;-81
2024/04/12 06:27:29;;;;;;;10.80;8.37;;;16.30;95.20;;;;;;5381799;26;20299;-81
2024/04/12 06:30:13;;;;;;;11.77;9.60;;;16.50;94.70;;;;;;5350484;26;20291;-83
2024/04/12 06:32:41;;;;;;;13.47;8.63;;;16.60;94.50;;;;;;5355453;26;20247;-81
2024/04/12 06:35:20;;;;;;;14.47;9.27;;;16.80;94.40;;;;;;5355433;26;20259;-80
2024/04/12 06:38:00;;;;;;;10.70;8.93;;;16.90;94.30;;;;;;5358341;26;20244;-80
2024/04/12 06:40:31;;;;;;;13.77;9.50;;;17.00;94.00;;;;;;5382780;26;20303;-81
2024/04/12 06:43:11;;;;;;;11.57;10.37;;;17.10;93.90;;;;;;5378188;26;20255;-83
2024/04/12 06:46:00;;;;;;;13.93;10.83;;;17.20;93.70;;;;;;5346362;26;20338;-81
2024/04/12 06:48:28;;;;;;;19.30;11.67;;;17.30;93.60;;;;;;5345292;26;20255;-82
2024/04/12 06:51:05;;;;;;;15.33;11.90;;;17.40;93.60;;;;;;5375203;26;20247;-81
2024/04/12 06:53:46;;;;;;;15.40;12.63;;;17.50;93.60;;;;;;5358827;26;20286;-81
2024/04/12 06:56:17;;;;;;;17.77;13.53;;;17.60;93.50;;;;;;5347050;26;20762;-81
2024/04/12 06:58:48;;;;;;;19.23;13.20;;;17.70;93.50;;;;;;5377888;26;20305;-81
2024/04/12 07:01:25;;;;;;;16.90;13.10;;;17.80;93.30;;;;;;5372260;26;20281;-81
2024/04/12 07:04:05;;;;;;;18.23;13.50;;;17.90;93.30;;;;;;5381532;26;20310;-82
2024/04/12 07:06:33;;;;;;;15.70;13.23;;;18.10;93.40;;;;;;5367656;26;20259;-80
2024/04/12 07:09:08;;;;;;;20.60;14.00;;;18.20;93.20;;;;;;5352319;26;20257;-79
2024/04/12 07:11:39;;;;;;;19.73;14.23;;;18.30;93.00;;;;;;5380574;26;20615;-81
2024/04/12 07:14:10;;;;;;;20.40;15.73;;;18.40;92.90;;;;;;5383761;26;20247;-81
2024/04/12 07:16:37;;;;;;;15.63;13.93;;;18.50;92.80;;;;;;5385975;26;20309;-81
2024/04/12 07:19:08;;;;;;;18.53;13.73;;;18.70;92.80;;;;;;5356861;26;20256;-81
2024/04/12 07:21:54;;;;;;;19.67;15.23;;;18.80;92.70;;;;;;5383404;26;20259;-81
2024/04/12 07:24:47;;;;;;;19.67;14.57;;;18.90;92.50;;;;;;5384743;26;20252;-81
2024/04/12 07:27:41;;;;;;;19.93;15.27;;;19.00;92.50;;;;;;5353657;26;20564;-81
2024/04/12 07:30:14;;;;;;;20.67;15.40;;;19.10;92.40;;;;;;5343868;26;20271;-82
2024/04/12 07:33:05;;;;;;;20.03;15.53;;;19.20;92.40;;;;;;5345059;26;20367;-82
2024/04/12 07:35:41;;;;;;;19.63;15.00;;;19.30;92.30;;;;;;5379750;26;20256;-81
2024/04/12 07:38:49;;;;;;;18.50;15.07;;;19.50;92.30;;;;;;5369895;26;20257;-80
2024/04/12 07:41:43;;;;;;;19.57;15.00;;;19.60;92.10;;;;;;5346724;26;20257;-82
2024/04/12 07:44:24;;;;;;;17.77;15.63;;;19.70;92.00;;;;;;5330436;26;20264;-81
2024/04/12 07:47:06;;;;;;;20.60;15.30;;;19.80;91.70;;;;;;5398370;26;20247;-83
2024/04/12 07:49:39;;;;;;;19.13;14.47;;;19.90;91.80;;;;;;5379839;26;20618;-83
2024/04/12 07:52:13;;;;;;;16.10;14.40;;;20.00;91.80;;;;;;5409674;26;20730;-81
2024/04/12 07:54:41;;;;;;;18.37;14.90;;;20.20;91.70;;;;;;5386172;26;20255;-82
2024/04/12 07:57:13;;;;;;;20.90;14.60;;;20.30;91.50;;;;;;5318275;26;20331;-81
2024/04/12 07:59:43;;;;;;;19.93;14.70;;;20.50;90.90;;;;;;5371631;26;20261;-81
2024/04/12 08:02:17;;;;;;;17.80;14.33;;;20.60;90.90;;;;;;5364458;26;20279;-82
2024/04/12 08:04:54;;;;;;;17.03;14.57;;;20.70;90.90;;;;;;5381550;26;20243;-80
2024/04/12 08:07:29;;;;;;;17.47;15.57;;;20.80;90.90;;;;;;5385348;26;20290;-81
2024/04/12 08:10:25;;;;;;;18.20;15.33;;;21.00;90.40;;;;;;5387413;26;20267;-81
2024/04/12 08:13:10;;;;;;;19.40;15.97;;;21.10;90.10;;;;;;5382629;26;20292;-83
2024/04/12 08:15:52;;;;;;;23.50;16.23;;;21.20;89.60;;;;;;5361957;26;20248;-82
2024/04/12 08:19:21;;;;;;;24.97;16.30;;;21.30;89.30;;;;;;5346584;26;20241;-82
2024/04/12 08:22:44;;;;;;;19.77;17.03;;;21.40;89.10;;;;;;5351878;26;20244;-83
2024/04/12 08:25:48;;;;;;;18.87;16.40;;;21.50;90.00;;;;;;5377264;26;20240;-83
2024/04/12 08:29:11;;;;;;;18.83;15.97;;;21.80;89.80;;;;;;5364278;26;20286;-83
2024/04/12 08:32:13;;;;;;;21.13;15.03;;;22.00;89.50;;;;;;5410996;26;20726;-82
2024/04/12 08:34:44;;;;;;;21.93;16.30;;;22.30;88.30;;;;;;5359096;26;20278;-81
2024/04/12 08:37:33;;;;;;;21.70;17.30;;;22.40;86.80;;;;;;5363196;26;20287;-83
2024/04/12 08:40:09;;;;;;;22.83;15.30;;;22.60;86.00;;;;;;5368054;26;20634;-83
2024/04/12 08:43:08;;;;;;;18.23;16.07;;;22.70;86.20;;;;;;5361096;26;20260;-83
2024/04/12 08:45:58;;;;;;;19.27;15.23;;;22.80;85.90;;;;;;5355616;26;20257;-82
2024/04/12 08:48:34;;;;;;;15.37;13.77;;;22.80;85.60;;;;;;5409101;26;20335;-82
2024/04/12 08:52:24;;;;;;;15.67;14.00;;;23.00;85.20;;;;;;5386829;26;20295;-84
2024/04/12 08:54:54;;;;;;;16.60;14.00;;;23.10;84.70;;;;;;5334030;26;20303;-84
2024/04/12 08:57:49;;;;;;;15.53;13.97;;;23.30;83.60;;;;;;5375994;26;20256;-84
2024/04/12 09:07:27;;;;;;;13.77;12.30;;;23.60;82.80;;;;;;5335074;26;20246;-83
2024/04/12 09:10:22;;;;;;;13.53;12.13;;;23.70;81.50;;;;;;5325606;26;20240;-83
2024/04/12 09:13:00;;;;;;;19.87;12.90;;;23.70;81.20;;;;;;5358420;26;20290;-83
2024/04/12 09:15:49;;;;;;;14.30;11.97;;;23.80;81.30;;;;;;5361688;26;20299;-82
2024/04/12 09:23:41;;;;;;;14.00;9.47;;;24.10;79.50;;;;;;5377246;26;20240;-82
2024/04/12 09:26:40;;;;;;;17.93;11.60;;;24.30;78.10;;;;;;5399650;26;20244;-82
2024/04/12 09:29:26;;;;;;;11.20;10.00;;;24.40;77.80;;;;;;5359288;26;20257;-82
2024/04/12 09:35:55;;;;;;;;;;;;;;;;;;;;;
2024/04/12 09:38:35;;;;;;;10.47;7.60;;;24.60;75.80;;;;;;5383747;26;20252;-83
2024/04/12 09:42:03;;;;;;;9.53;7.20;;;24.60;75.50;;;;;;5332925;26;20287;-82
2024/04/12 09:44:41;;;;;;;8.67;7.53;;;24.60;71.90;;;;;;5347327;26;20263;-85
2024/04/12 10:37:28;;;;;;;8.97;8.07;;;25.80;67.80;;;;;;5369422;26;21738;-83
2024/04/12 10:40:53;;;;;;;13.90;8.23;;;25.80;69.00;;;;;;5373298;26;20240;-82
2024/04/12 10:44:16;;;;;;;10.67;7.73;;;25.70;67.80;;;;;;5367946;26;20299;-82
2024/04/12 10:47:37;;;;;;;8.77;7.80;;;25.80;68.00;;;;;;5402074;26;20290;-82
2024/04/12 10:50:30;;;;;;;8.07;7.23;;;26.00;67.70;;;;;;5373782;26;20346;-84
2024/04/12 10:53:38;;;;;;;8.47;7.67;;;26.10;65.20;;;;;;5382130;26;20296;-82
2024/04/12 10:56:18;;;;;;;12.27;8.43;;;26.20;65.20;;;;;;5349810;26;20245;-83
2024/04/12 10:58:59;;;;;;;10.23;7.63;;;26.30;64.10;;;;;;5356398;26;20353;-83
2024/04/12 11:01:38;;;;;;;10.57;7.83;;;26.30;65.60;;;;;;5356268;26;20247;-83
2024/04/12 11:05:05;;;;;;;9.87;8.00;;;26.30;64.80;;;;;;5380909;26;20275;-84
2024/04/12 11:07:34;;;;;;;8.30;7.50;;;26.40;65.20;;;;;;5382889;26;20350;-83
2024/04/12 11:10:24;;;;;;;8.87;6.90;;;26.50;65.80;;;;;;5357959;26;20259;-84
2024/04/12 11:13:08;;;;;;;13.07;7.93;;;26.60;65.80;;;;;;5373914;26;20249;-83
2024/04/12 11:33:12;;;;;;;10.83;8.47;;;27.00;63.60;;;;;;5343454;26;20291;-82
2024/04/12 11:36:10;;;;;;;8.83;7.43;;;26.90;63.30;;;;;;5352890;26;20283;-84
2024/04/12 11:38:39;;;;;;;10.10;7.67;;;26.80;64.30;;;;;;5318853;26;20372;-84
2024/04/12 11:41:29;;;;;;;11.00;7.67;;;26.80;64.10;;;;;;5338812;26;20340;-83
2024/04/12 11:44:08;;;;;;;7.53;6.90;;;26.90;63.50;;;;;;5309740;26;20371;-83
2024/04/12 11:46:46;;;;;;;7.50;6.80;;;26.90;62.40;;;;;;5343391;26;21891;-84
2024/04/12 11:49:27;;;;;;;8.07;7.03;;;27.00;63.90;;;;;;5362657;26;20291;-83
2024/04/12 11:52:17;;;;;;;11.17;7.57;;;27.00;64.30;;;;;;5373760;26;20295;-83
2024/04/12 11:54:56;;;;;;;10.90;7.63;;;27.10;64.60;;;;;;5345546;26;20282;-83
2024/04/12 11:57:51;;;;;;;10.07;9.03;;;27.10;63.90;;;;;;5346319;26;20257;-83
2024/04/12 12:00:20;;;;;;;15.07;8.80;;;27.10;63.20;;;;;;5373055;26;20321;-82
2024/04/12 12:03:01;;;;;;;10.13;8.23;;;27.10;62.90;;;;;;5352407;26;20300;-86
2024/04/12 12:05:37;;;;;;;9.80;7.47;;;27.10;63.20;;;;;;5384456;26;20343;-82
2024/04/12 12:08:25;;;;;;;9.73;7.07;;;27.10;63.70;;;;;;5380860;26;20291;-83
2024/04/12 12:10:56;;;;;;;11.43;8.90;;;27.10;64.10;;;;;;5362230;26;20294;-83
2024/04/12 12:13:33;;;;;;;13.03;8.67;;;27.20;63.20;;;;;;5383462;26;20252;-81
2024/04/12 12:16:06;;;;;;;9.80;7.27;;;27.10;62.40;;;;;;5354072;26;20275;-83
2024/04/12 12:18:54;;;;;;;10.07;8.33;;;27.10;63.20;;;;;;5353138;26;20286;-83
2024/04/12 12:21:51;;;;;;;10.03;7.50;;;27.10;62.00;;;;;;5370435;26;20249;-83
2024/04/12 12:24:37;;;;;;;8.70;7.47;;;27.10;62.30;;;;;;5344886;26;20304;-83
2024/04/12 12:27:16;;;;;;;15.33;8.40;;;27.20;63.10;;;;;;5352086;26;20383;-85
2024/04/12 12:29:53;;;;;;;10.20;8.27;;;27.20;62.30;;;;;;5374786;26;20572;-84
2024/04/12 12:32:44;;;;;;;10.70;7.30;;;27.30;62.20;;;;;;5350829;26;20279;-83
2024/04/12 12:38:14;;;;;;;10.33;6.77;;;27.20;62.70;;;;;;5382376;26;20261;-83
2024/04/12 12:40:54;;;;;;;8.80;6.00;;;27.30;62.20;;;;;;5380750;26;20244;-83
2024/04/12 12:43:28;;;;;;;11.40;6.60;;;27.40;62.20;;;;;;5350934;26;20684;-85
2024/04/12 12:46:07;;;;;;;10.40;6.47;;;27.40;63.20;;;;;;5385771;26;20248;-83
2024/04/12 12:48:39;;;;;;;10.63;8.43;;;27.40;62.20;;;;;;5386881;26;20336;-84
2024/04/12 12:51:29;;;;;;;10.93;6.17;;;27.30;63.70;;;;;;5367584;26;20300;-82
2024/04/12 12:53:59;;;;;;;11.10;8.57;;;27.30;63.00;;;;;;5350971;26;20252;-84
2024/04/12 12:56:31;;;;;;;7.47;6.30;;;27.30;62.60;;;;;;5346628;26;20260;-86
2024/04/12 12:58:59;;;;;;;13.87;7.23;;;27.40;62.80;;;;;;5377801;26;20355;-85
2024/04/12 13:01:41;;;;;;;9.63;6.20;;;27.40;63.00;;;;;;5351110;26;20324;-84
2024/04/12 13:04:09;;;;;;;9.60;6.33;;;27.50;62.50;;;;;;5387211;26;20248;-84
2024/04/12 13:06:43;;;;;;;11.63;8.33;;;27.50;62.20;;;;;;5385035;26;20319;-83
2024/04/12 13:09:17;;;;;;;8.90;7.53;;;27.60;62.20;;;;;;5348129;26;20279;-83
2024/04/12 13:11:55;;;;;;;10.67;8.10;;;27.60;63.00;;;;;;5382552;26;20275;-84
2024/04/12 13:14:44;;;;;;;12.80;8.50;;;27.50;63.50;;;;;;5383214;26;20295;-85
2024/04/12 13:17:14;;;;;;;9.57;7.87;;;27.30;62.60;;;;;;5381130;26;20290;-83
2024/04/12 13:19:46;;;;;;;8.00;7.23;;;27.20;62.60;;;;;;5381902;26;20579;-81
2024/04/12 13:22:17;;;;;;;7.97;6.87;;;27.10;63.70;;;;;;5377295;26;20288;-83
2024/04/12 13:24:48;;;;;;;8.83;6.90;;;27.00;62.80;;;;;;5358871;26;20260;-83
2024/04/12 13:27:23;;;;;;;13.30;7.10;;;27.10;62.90;;;;;;5384073;26;20299;-84
2024/04/12 13:29:59;;;;;;;9.23;7.80;;;27.10;63.90;;;;;;5362021;26;20553;-83
2024/04/12 13:32:39;;;;;;;12.73;7.63;;;27.10;63.20;;;;;;5344880;26;20276;-83
2024/04/12 13:35:13;;;;;;;11.17;7.10;;;27.10;63.20;;;;;;5380527;26;20308;-83
2024/04/12 13:37:46;;;;;;;8.17;7.00;;;27.20;62.40;;;;;;5372698;26;20248;-84
2024/04/12 13:40:34;;;;;;;8.63;7.67;;;27.20;62.50;;;;;;5355791;26;20248;-84
2024/04/12 13:43:03;;;;;;;13.77;7.50;;;27.10;61.90;;;;;;5352996;26;20264;-84
2024/04/12 13:51:21;;;;;;;8.23;7.13;;;27.00;61.20;;;;;;5381266;26;20252;-84
2024/04/12 13:53:58;;;;;;;11.27;8.50;;;26.90;61.60;;;;;;5359262;26;20287;-84
2024/04/12 13:56:37;;;;;;;10.90;8.43;;;26.90;63.80;;;;;;5366445;26;20252;-85
2024/04/12 13:59:10;;;;;;;10.90;7.43;;;26.90;64.60;;;;;;5386298;26;20287;-83
2024/04/12 14:01:41;;;;;;;8.20;6.30;;;26.80;64.30;;;;;;5343088;26;20302;-84
2024/04/12 14:04:09;;;;;;;8.20;6.07;;;26.70;63.20;;;;;;5348136;26;20249;-83
2024/04/12 14:06:51;;;;;;;8.40;6.97;;;26.60;63.00;;;;;;5376690;26;20252;-85
2024/04/12 14:09:22;;;;;;;7.83;7.03;;;26.60;63.20;;;;;;5386258;26;20244;-84
2024/04/12 14:11:51;;;;;;;7.30;6.40;;;26.50;63.10;;;;;;5386519;26;20260;-85
2024/04/12 14:14:25;;;;;;;9.77;7.37;;;26.50;64.10;;;;;;5384047;26;20363;-83
2024/04/12 14:16:55;;;;;;;10.50;7.87;;;26.50;63.40;;;;;;5386512;26;20256;-84
2024/04/12 14:19:23;;;;;;;10.30;7.73;;;26.50;63.60;;;;;;5380810;26;20256;-84
2024/04/12 14:21:52;;;;;;;9.63;6.80;;;26.60;63.90;;;;;;5372936;26;20252;-83
2024/04/12 14:27:14;;;;;;;18.93;6.80;;;26.60;64.30;;;;;;5379289;26;20347;-84
2024/04/12 14:29:46;;;;;;;6.60;5.83;;;26.60;63.30;;;;;;5382513;26;20577;-85
2024/04/12 14:32:22;;;;;;;11.97;4.70;;;26.60;63.60;;;;;;5350879;26;20252;-84
2024/04/12 14:34:54;;;;;;;7.30;5.53;;;26.60;63.90;;;;;;5358278;26;20256;-85
2024/04/12 14:37:36;;;;;;;6.70;6.10;;;26.60;63.90;;;;;;5360548;26;20289;-84
2024/04/12 14:40:18;;;;;;;7.93;6.60;;;26.70;64.20;;;;;;5357792;26;20264;-84
2024/04/12 14:43:08;;;;;;;9.53;6.87;;;26.70;64.40;;;;;;5355328;26;20244;-83
2024/04/12 14:45:38;;;;;;;10.97;6.17;;;26.70;64.40;;;;;;5370046;26;20257;-83
2024/04/12 14:48:07;;;;;;;6.87;5.87;;;26.70;63.30;;;;;;5355922;26;20260;-85
2024/04/12 14:50:55;;;;;;;9.90;6.33;;;26.60;63.40;;;;;;5359798;26;20600;-84
2024/04/12 14:53:24;;;;;;;6.87;6.07;;;26.50;62.70;;;;;;5340171;26;20293;-83
2024/04/12 14:55:52;;;;;;;10.37;5.20;;;26.40;63.80;;;;;;5338683;26;20257;-83
2024/04/12 14:58:32;;;;;;;5.90;4.90;;;26.30;64.90;;;;;;5385803;26;20240;-83
2024/04/12 15:01:04;;;;;;;6.50;5.17;;;26.30;65.10;;;;;;5356950;26;20252;-82
2024/04/12 15:49:34;;;;;;;7.00;4.40;;;25.40;64.30;;;;;;5384560;26;20248;-83
2024/04/12 15:52:21;;;;;;;7.50;4.90;;;25.40;64.30;;;;;;5380152;26;20264;-83
2024/04/12 15:54:52;;;;;;;10.87;5.87;;;25.30;65.60;;;;;;5340103;26;20350;-83
2024/04/12 16:11:17;;;;;;;8.33;4.80;;;25.10;65.70;;;;;;5379449;26;20240;-84
2024/04/12 16:13:47;;;;;;;9.03;4.47;;;25.10;66.60;;;;;;5351169;26;20542;-82
2024/04/12 16:16:17;;;;;;;6.30;4.90;;;25.00;66.80;;;;;;5382782;26;20287;-83
2024/04/12 16:18:53;;;;;;;6.33;4.67;;;25.00;66.50;;;;;;5356633;26;20295;-83
2024/04/12 16:21:23;;;;;;;6.17;4.77;;;24.90;66.50;;;;;;5383871;26;20259;-83